sensor_id;sensor_type;location;lat;lon;timestamp;P1;durP1;ratioP1;P2;durP2;ratioP2
23476;SDS011;11911;50.768;13.150;2022-08-18T04:01:29;7.00;;;5.13;;
23476;SDS011;11911;50.768;13.150;2022-08-18T04:03:58;8.37;;;4.70;;
23476;SDS011;11911;50.768;13.150;2022-08-18T04:06:28;4.70;;;4.20;;
23476;SDS011;11911;50.768;13.150;2022-08-18T04:08:56;4.83;;;4.37;;
23476;SDS011;11911;50.768;13.150;2022-08-18T04:11:24;5.40;;;4.90;;
23476;SDS011;11911;50.768;13.150;2022-08-18T04:13:52;5.13;;;4.73;;
23476;SDS011;11911;50.768;13.150;2022-08-18T04:16:18;4.60;;;4.20;;
23476;SDS011;11911;50.768;13.150;2022-08-18T04:18:44;5.27;;;4.87;;
23476;SDS011;11911;50.768;13.150;2022-08-18T04:21:10;5.13;;;4.63;;
23476;SDS011;11911;50.768;13.150;2022-08-18T04:23:38;11.03;;;4.20;;
23476;SDS011;11911;50.768;13.150;2022-08-18T04:26:05;8.97;;;4.73;;
23476;SDS011;11911;50.768;13.150;2022-08-18T04:28:32;6.30;;;4.80;;
23476;SDS011;11911;50.768;13.150;2022-08-18T04:30:58;7.70;;;4.77;;
23476;SDS011;11911;50.768;13.150;2022-08-18T04:33:29;12.60;;;4.60;;
23476;SDS011;11911;50.768;13.150;2022-08-18T04:35:54;7.70;;;5.40;;
23476;SDS011;11911;50.768;13.150;2022-08-18T04:38:20;5.37;;;4.20;;
23476;SDS011;11911;50.768;13.150;2022-08-18T04:40:47;5.07;;;4.67;;
23476;SDS011;11911;50.768;13.150;2022-08-18T04:43:12;11.63;;;4.33;;
23476;SDS011;11911;50.768;13.150;2022-08-18T04:45:41;5.90;;;4.80;;
23476;SDS011;11911;50.768;13.150;2022-08-18T04:48:09;4.93;;;4.47;;
23476;SDS011;11911;50.768;13.150;2022-08-18T04:50:36;4.70;;;4.30;;
23476;SDS011;11911;50.768;13.150;2022-08-18T04:53:03;10.57;;;5.00;;
23476;SDS011;11911;50.768;13.150;2022-08-18T04:55:55;10.07;;;4.80;;
23476;SDS011;11911;50.768;13.150;2022-08-18T04:58:21;5.13;;;4.70;;
23476;SDS011;11911;50.768;13.150;2022-08-18T05:00:55;8.83;;;4.90;;
23476;SDS011;11911;50.768;13.150;2022-08-18T05:03:22;7.03;;;4.13;;
23476;SDS011;11911;50.768;13.150;2022-08-18T05:05:50;4.87;;;4.37;;
23476;SDS011;11911;50.768;13.150;2022-08-18T05:08:17;7.73;;;4.40;;
23476;SDS011;11911;50.768;13.150;2022-08-18T05:10:43;15.53;;;4.30;;
23476;SDS011;11911;50.768;13.150;2022-08-18T05:13:08;6.73;;;4.50;;
23476;SDS011;11911;50.768;13.150;2022-08-18T05:15:33;7.03;;;5.00;;
23476;SDS011;11911;50.768;13.150;2022-08-18T05:18:00;5.53;;;5.00;;
23476;SDS011;11911;50.768;13.150;2022-08-18T05:20:25;5.00;;;4.33;;
23476;SDS011;11911;50.768;13.150;2022-08-18T05:22:51;8.27;;;5.07;;
23476;SDS011;11911;50.768;13.150;2022-08-18T05:25:17;7.53;;;4.87;;
23476;SDS011;11911;50.768;13.150;2022-08-18T05:27:42;7.77;;;4.77;;
23476;SDS011;11911;50.768;13.150;2022-08-18T05:30:08;9.57;;;4.63;;
23476;SDS011;11911;50.768;13.150;2022-08-18T05:32:39;4.83;;;4.30;;
23476;SDS011;11911;50.768;13.150;2022-08-18T05:35:21;12.73;;;4.93;;
23476;SDS011;11911;50.768;13.150;2022-08-18T05:40:26;5.80;;;4.13;;
23476;SDS011;11911;50.768;13.150;2022-08-18T05:42:52;6.37;;;4.43;;
23476;SDS011;11911;50.768;13.150;2022-08-18T05:45:21;7.47;;;4.53;;
23476;SDS011;11911;50.768;13.150;2022-08-18T05:47:47;7.40;;;4.43;;
23476;SDS011;11911;50.768;13.150;2022-08-18T05:50:15;6.83;;;5.00;;
23476;SDS011;11911;50.768;13.150;2022-08-18T05:52:47;5.00;;;4.60;;
23476;SDS011;11911;50.768;13.150;2022-08-18T05:55:31;8.37;;;4.60;;
23476;SDS011;11911;50.768;13.150;2022-08-18T05:58:21;7.27;;;4.63;;
23476;SDS011;11911;50.768;13.150;2022-08-18T06:01:12;5.07;;;4.60;;
23476;SDS011;11911;50.768;13.150;2022-08-18T06:03:52;8.27;;;4.50;;
23476;SDS011;11911;50.768;13.150;2022-08-18T06:06:22;5.43;;;4.57;;
23476;SDS011;11911;50.768;13.150;2022-08-18T06:09:13;11.10;;;4.30;;
23476;SDS011;11911;50.768;13.150;2022-08-18T06:11:41;7.80;;;4.80;;
23476;SDS011;11911;50.768;13.150;2022-08-18T06:14:07;23.33;;;5.77;;
23476;SDS011;11911;50.768;13.150;2022-08-18T06:19:21;5.33;;;4.83;;
23476;SDS011;11911;50.768;13.150;2022-08-18T06:24:51;12.03;;;4.60;;
23476;SDS011;11911;50.768;13.150;2022-08-18T06:30:15;5.47;;;5.00;;
23476;SDS011;11911;50.768;13.150;2022-08-18T06:33:01;7.07;;;4.40;;
23476;SDS011;11911;50.768;13.150;2022-08-18T06:35:52;9.13;;;4.50;;
23476;SDS011;11911;50.768;13.150;2022-08-18T06:41:08;11.80;;;4.67;;
23476;SDS011;11911;50.768;13.150;2022-08-18T06:46:54;8.07;;;5.30;;
23476;SDS011;11911;50.768;13.150;2022-08-18T06:54:49;5.83;;;4.10;;
23476;SDS011;11911;50.768;13.150;2022-08-18T06:57:23;11.00;;;4.87;;
23476;SDS011;11911;50.768;13.150;2022-08-18T06:59:55;10.60;;;4.70;;
23476;SDS011;11911;50.768;13.150;2022-08-18T07:07:43;7.93;;;3.27;;
23476;SDS011;11911;50.768;13.150;2022-08-18T07:12:40;3.73;;;3.40;;
23476;SDS011;11911;50.768;13.150;2022-08-18T07:15:06;5.37;;;3.40;;
23476;SDS011;11911;50.768;13.150;2022-08-18T07:17:36;4.07;;;3.73;;
23476;SDS011;11911;50.768;13.150;2022-08-18T07:22:50;11.13;;;3.80;;
23476;SDS011;11911;50.768;13.150;2022-08-18T07:25:28;15.80;;;4.47;;
23476;SDS011;11911;50.768;13.150;2022-08-18T07:28:06;7.27;;;4.07;;
23476;SDS011;11911;50.768;13.150;2022-08-18T07:30:50;10.13;;;4.10;;
23476;SDS011;11911;50.768;13.150;2022-08-18T07:33:17;35.87;;;4.40;;
23476;SDS011;11911;50.768;13.150;2022-08-18T07:35:57;6.83;;;4.20;;
23476;SDS011;11911;50.768;13.150;2022-08-18T07:38:47;19.00;;;4.80;;
23476;SDS011;11911;50.768;13.150;2022-08-18T07:41:19;12.53;;;3.77;;
23476;SDS011;11911;50.768;13.150;2022-08-18T07:43:59;7.80;;;4.20;;
23476;SDS011;11911;50.768;13.150;2022-08-18T07:46:44;6.97;;;3.90;;
23476;SDS011;11911;50.768;13.150;2022-08-18T07:49:17;12.63;;;4.50;;
23476;SDS011;11911;50.768;13.150;2022-08-18T07:51:46;5.47;;;3.70;;
23476;SDS011;11911;50.768;13.150;2022-08-18T07:54:17;6.10;;;3.60;;
23476;SDS011;11911;50.768;13.150;2022-08-18T08:02:27;5.73;;;4.13;;
23476;SDS011;11911;50.768;13.150;2022-08-18T08:07:39;26.23;;;3.70;;
23476;SDS011;11911;50.768;13.150;2022-08-18T08:10:18;9.50;;;3.90;;
23476;SDS011;11911;50.768;13.150;2022-08-18T08:13:04;17.37;;;4.10;;
23476;SDS011;11911;50.768;13.150;2022-08-18T08:21:21;6.53;;;4.03;;
23476;SDS011;11911;50.768;13.150;2022-08-18T08:23:49;7.60;;;3.90;;
23476;SDS011;11911;50.768;13.150;2022-08-18T08:32:10;8.50;;;3.40;;
23476;SDS011;11911;50.768;13.150;2022-08-18T08:40:16;19.80;;;4.33;;
23476;SDS011;11911;50.768;13.150;2022-08-18T08:42:53;16.53;;;4.40;;
23476;SDS011;11911;50.768;13.150;2022-08-18T08:45:27;11.73;;;4.13;;
23476;SDS011;11911;50.768;13.150;2022-08-18T08:47:58;7.87;;;3.87;;
23476;SDS011;11911;50.768;13.150;2022-08-18T08:50:25;9.30;;;4.13;;
23476;SDS011;11911;50.768;13.150;2022-08-18T08:53:05;6.67;;;3.90;;
23476;SDS011;11911;50.768;13.150;2022-08-18T08:55:42;5.70;;;3.77;;
23476;SDS011;11911;50.768;13.150;2022-08-18T09:01:33;16.93;;;3.70;;
23476;SDS011;11911;50.768;13.150;2022-08-18T09:04:15;8.23;;;3.60;;
23476;SDS011;11911;50.768;13.150;2022-08-18T09:09:46;4.03;;;3.63;;
23476;SDS011;11911;50.768;13.150;2022-08-18T09:20:47;5.50;;;3.70;;
23476;SDS011;11911;50.768;13.150;2022-08-18T09:23:33;13.77;;;3.57;;
23476;SDS011;11911;50.768;13.150;2022-08-18T09:29:25;5.53;;;3.57;;
23476;SDS011;11911;50.768;13.150;2022-08-18T09:34:46;9.37;;;3.87;;
23476;SDS011;11911;50.768;13.150;2022-08-18T09:37:24;24.77;;;3.97;;
23476;SDS011;11911;50.768;13.150;2022-08-18T09:40:09;10.93;;;4.37;;
23476;SDS011;11911;50.768;13.150;2022-08-18T09:42:57;10.03;;;3.43;;
23476;SDS011;11911;50.768;13.150;2022-08-18T09:45:58;9.60;;;4.20;;
23476;SDS011;11911;50.768;13.150;2022-08-18T09:48:32;7.00;;;3.40;;
23476;SDS011;11911;50.768;13.150;2022-08-18T09:51:14;16.27;;;3.67;;
23476;SDS011;11911;50.768;13.150;2022-08-18T09:56:17;14.27;;;3.67;;
23476;SDS011;11911;50.768;13.150;2022-08-18T09:59:49;13.50;;;3.90;;
23476;SDS011;11911;50.768;13.150;2022-08-18T10:02:04;15.33;;;3.77;;
23476;SDS011;11911;50.768;13.150;2022-08-18T10:04:38;6.73;;;4.27;;
23476;SDS011;11911;50.768;13.150;2022-08-18T10:07:17;14.10;;;3.70;;
23476;SDS011;11911;50.768;13.150;2022-08-18T10:09:48;13.20;;;4.00;;
23476;SDS011;11911;50.768;13.150;2022-08-18T10:12:54;22.87;;;4.00;;
23476;SDS011;11911;50.768;13.150;2022-08-18T10:18:27;13.03;;;4.37;;
23476;SDS011;11911;50.768;13.150;2022-08-18T10:36:45;14.53;;;4.30;;
23476;SDS011;11911;50.768;13.150;2022-08-18T10:39:15;7.47;;;4.30;;
23476;SDS011;11911;50.768;13.150;2022-08-18T10:42:03;16.70;;;4.50;;
23476;SDS011;11911;50.768;13.150;2022-08-18T10:44:48;18.53;;;4.70;;
23476;SDS011;11911;50.768;13.150;2022-08-18T10:47:25;9.40;;;4.30;;
23476;SDS011;11911;50.768;13.150;2022-08-18T10:49:55;12.30;;;4.37;;
23476;SDS011;11911;50.768;13.150;2022-08-18T10:55:14;20.87;;;5.17;;
23476;SDS011;11911;50.768;13.150;2022-08-18T10:58:06;10.63;;;5.10;;
23476;SDS011;11911;50.768;13.150;2022-08-18T11:00:37;7.70;;;4.67;;
23476;SDS011;11911;50.768;13.150;2022-08-18T11:03:29;13.87;;;5.50;;
23476;SDS011;11911;50.768;13.150;2022-08-18T11:06:07;13.63;;;5.40;;
23476;SDS011;11911;50.768;13.150;2022-08-18T11:08:40;13.20;;;4.90;;
23476;SDS011;11911;50.768;13.150;2022-08-18T11:11:09;11.10;;;4.90;;
23476;SDS011;11911;50.768;13.150;2022-08-18T11:16:26;9.93;;;4.90;;
23476;SDS011;11911;50.768;13.150;2022-08-18T11:19:17;11.53;;;5.80;;
23476;SDS011;11911;50.768;13.150;2022-08-18T11:21:47;12.93;;;6.23;;
23476;SDS011;11911;50.768;13.150;2022-08-18T11:24:16;27.90;;;6.63;;
23476;SDS011;11911;50.768;13.150;2022-08-18T11:26:54;10.13;;;5.70;;
23476;SDS011;11911;50.768;13.150;2022-08-18T11:29:32;9.40;;;5.20;;
23476;SDS011;11911;50.768;13.150;2022-08-18T11:40:29;7.83;;;5.77;;
23476;SDS011;11911;50.768;13.150;2022-08-18T11:45:35;13.53;;;6.53;;
23476;SDS011;11911;50.768;13.150;2022-08-18T11:58:51;10.10;;;7.37;;
23476;SDS011;11911;50.768;13.150;2022-08-18T12:06:58;9.80;;;5.70;;
23476;SDS011;11911;50.768;13.150;2022-08-18T12:17:20;9.90;;;7.60;;
23476;SDS011;11911;50.768;13.150;2022-08-18T12:19:46;15.23;;;7.67;;
23476;SDS011;11911;50.768;13.150;2022-08-18T12:22:16;11.40;;;7.67;;
23476;SDS011;11911;50.768;13.150;2022-08-18T12:24:52;15.60;;;7.00;;
23476;SDS011;11911;50.768;13.150;2022-08-18T12:27:20;13.63;;;7.70;;
23476;SDS011;11911;50.768;13.150;2022-08-18T12:29:48;20.43;;;9.43;;
23476;SDS011;11911;50.768;13.150;2022-08-18T12:32:15;15.40;;;8.10;;
23476;SDS011;11911;50.768;13.150;2022-08-18T12:34:41;10.90;;;7.67;;
23476;SDS011;11911;50.768;13.150;2022-08-18T12:37:07;15.13;;;8.03;;
23476;SDS011;11911;50.768;13.150;2022-08-18T12:39:34;14.40;;;8.80;;
23476;SDS011;11911;50.768;13.150;2022-08-18T12:42:00;13.87;;;9.33;;
23476;SDS011;11911;50.768;13.150;2022-08-18T12:44:26;12.17;;;9.70;;
23476;SDS011;11911;50.768;13.150;2022-08-18T12:46:52;19.10;;;9.50;;
23476;SDS011;11911;50.768;13.150;2022-08-18T12:49:20;20.73;;;9.27;;
23476;SDS011;11911;50.768;13.150;2022-08-18T12:51:47;16.63;;;10.70;;
23476;SDS011;11911;50.768;13.150;2022-08-18T12:54:14;13.70;;;9.17;;
23476;SDS011;11911;50.768;13.150;2022-08-18T12:56:41;17.00;;;10.83;;
23476;SDS011;11911;50.768;13.150;2022-08-18T12:59:08;18.60;;;11.13;;
23476;SDS011;11911;50.768;13.150;2022-08-18T13:01:34;15.27;;;10.37;;
23476;SDS011;11911;50.768;13.150;2022-08-18T13:04:02;20.10;;;9.30;;
23476;SDS011;11911;50.768;13.150;2022-08-18T13:06:28;14.00;;;10.30;;
23476;SDS011;11911;50.768;13.150;2022-08-18T13:08:55;26.67;;;10.87;;
23476;SDS011;11911;50.768;13.150;2022-08-18T13:11:21;12.20;;;10.97;;
23476;SDS011;11911;50.768;13.150;2022-08-18T13:13:47;14.23;;;10.17;;
23476;SDS011;11911;50.768;13.150;2022-08-18T13:16:14;13.50;;;10.87;;
23476;SDS011;11911;50.768;13.150;2022-08-18T13:18:42;14.27;;;10.67;;
23476;SDS011;11911;50.768;13.150;2022-08-18T13:21:08;18.73;;;9.50;;
23476;SDS011;11911;50.768;13.150;2022-08-18T13:23:35;15.97;;;10.43;;
23476;SDS011;11911;50.768;13.150;2022-08-18T13:26:01;11.20;;;9.70;;
23476;SDS011;11911;50.768;13.150;2022-08-18T13:28:29;12.83;;;11.10;;
23476;SDS011;11911;50.768;13.150;2022-08-18T13:30:56;20.73;;;10.73;;
23476;SDS011;11911;50.768;13.150;2022-08-18T13:33:22;13.10;;;10.07;;
23476;SDS011;11911;50.768;13.150;2022-08-18T13:35:48;23.60;;;11.53;;
23476;SDS011;11911;50.768;13.150;2022-08-18T13:38:15;14.33;;;11.70;;
23476;SDS011;11911;50.768;13.150;2022-08-18T13:40:43;19.63;;;11.00;;
23476;SDS011;11911;50.768;13.150;2022-08-18T13:43:12;12.17;;;10.73;;
23476;SDS011;11911;50.768;13.150;2022-08-18T13:45:38;14.80;;;10.97;;
23476;SDS011;11911;50.768;13.150;2022-08-18T13:48:03;13.60;;;10.43;;
23476;SDS011;11911;50.768;13.150;2022-08-18T13:50:29;17.07;;;11.20;;
23476;SDS011;11911;50.768;13.150;2022-08-18T13:52:55;21.90;;;9.97;;
23476;SDS011;11911;50.768;13.150;2022-08-18T13:55:24;19.90;;;11.40;;
23476;SDS011;11911;50.768;13.150;2022-08-18T13:57:50;14.37;;;10.30;;
23476;SDS011;11911;50.768;13.150;2022-08-18T14:00:17;13.20;;;10.97;;
23476;SDS011;11911;50.768;13.150;2022-08-18T14:02:45;21.63;;;10.37;;
23476;SDS011;11911;50.768;13.150;2022-08-18T14:05:12;29.97;;;12.10;;
23476;SDS011;11911;50.768;13.150;2022-08-18T14:07:40;16.03;;;10.37;;
23476;SDS011;11911;50.768;13.150;2022-08-18T14:10:06;14.87;;;10.27;;
23476;SDS011;11911;50.768;13.150;2022-08-18T14:12:33;12.87;;;11.50;;
23476;SDS011;11911;50.768;13.150;2022-08-18T14:15:01;13.10;;;11.47;;
23476;SDS011;11911;50.768;13.150;2022-08-18T14:17:30;12.30;;;11.07;;
23476;SDS011;11911;50.768;13.150;2022-08-18T14:19:56;23.83;;;10.30;;
23476;SDS011;11911;50.768;13.150;2022-08-18T14:22:41;22.10;;;11.43;;
23476;SDS011;11911;50.768;13.150;2022-08-18T14:25:25;12.73;;;11.50;;
23476;SDS011;11911;50.768;13.150;2022-08-18T14:28:09;22.83;;;11.80;;
23476;SDS011;11911;50.768;13.150;2022-08-18T14:30:35;16.20;;;13.30;;
23476;SDS011;11911;50.768;13.150;2022-08-18T14:33:03;12.60;;;11.40;;
23476;SDS011;11911;50.768;13.150;2022-08-18T14:35:31;17.80;;;11.40;;
23476;SDS011;11911;50.768;13.150;2022-08-18T14:37:57;18.60;;;11.70;;
23476;SDS011;11911;50.768;13.150;2022-08-18T14:40:25;19.07;;;11.73;;
23476;SDS011;11911;50.768;13.150;2022-08-18T14:42:51;16.50;;;11.33;;
23476;SDS011;11911;50.768;13.150;2022-08-18T14:45:17;12.10;;;10.80;;
23476;SDS011;11911;50.768;13.150;2022-08-18T14:47:42;21.20;;;10.27;;
23476;SDS011;11911;50.768;13.150;2022-08-18T14:50:08;13.10;;;11.20;;
23476;SDS011;11911;50.768;13.150;2022-08-18T14:52:37;26.93;;;13.00;;
23476;SDS011;11911;50.768;13.150;2022-08-18T14:55:04;23.30;;;12.40;;
23476;SDS011;11911;50.768;13.150;2022-08-18T14:57:29;19.30;;;11.80;;
23476;SDS011;11911;50.768;13.150;2022-08-18T14:59:55;16.63;;;10.87;;
23476;SDS011;11911;50.768;13.150;2022-08-18T15:02:20;17.90;;;11.73;;
23476;SDS011;11911;50.768;13.150;2022-08-18T15:04:46;28.87;;;12.00;;
23476;SDS011;11911;50.768;13.150;2022-08-18T15:07:11;25.17;;;11.23;;
23476;SDS011;11911;50.768;13.150;2022-08-18T15:09:37;13.83;;;11.90;;
23476;SDS011;11911;50.768;13.150;2022-08-18T15:12:02;21.30;;;12.63;;
23476;SDS011;11911;50.768;13.150;2022-08-18T15:14:29;16.03;;;11.10;;
23476;SDS011;11911;50.768;13.150;2022-08-18T15:16:56;16.67;;;10.93;;
23476;SDS011;11911;50.768;13.150;2022-08-18T15:19:23;18.50;;;10.57;;
23476;SDS011;11911;50.768;13.150;2022-08-18T15:21:49;15.70;;;11.07;;
23476;SDS011;11911;50.768;13.150;2022-08-18T15:24:33;21.10;;;10.83;;
23476;SDS011;11911;50.768;13.150;2022-08-18T15:27:17;11.93;;;10.77;;
23476;SDS011;11911;50.768;13.150;2022-08-18T15:29:42;11.57;;;10.23;;
23476;SDS011;11911;50.768;13.150;2022-08-18T15:32:08;18.13;;;10.80;;
23476;SDS011;11911;50.768;13.150;2022-08-18T15:34:34;16.10;;;10.67;;
23476;SDS011;11911;50.768;13.150;2022-08-18T15:36:59;22.10;;;10.50;;
23476;SDS011;11911;50.768;13.150;2022-08-18T15:39:25;23.10;;;10.43;;
23476;SDS011;11911;50.768;13.150;2022-08-18T15:41:50;14.53;;;10.07;;
23476;SDS011;11911;50.768;13.150;2022-08-18T15:44:18;15.77;;;10.67;;
23476;SDS011;11911;50.768;13.150;2022-08-18T15:46:45;18.10;;;9.83;;
23476;SDS011;11911;50.768;13.150;2022-08-18T15:49:12;17.30;;;9.57;;
23476;SDS011;11911;50.768;13.150;2022-08-18T15:51:38;13.80;;;9.37;;
23476;SDS011;11911;50.768;13.150;2022-08-18T15:54:08;15.80;;;10.73;;
23476;SDS011;11911;50.768;13.150;2022-08-18T15:56:34;15.03;;;8.73;;
23476;SDS011;11911;50.768;13.150;2022-08-18T15:59:01;17.10;;;9.50;;
23476;SDS011;11911;50.768;13.150;2022-08-18T16:01:31;16.83;;;10.63;;
23476;SDS011;11911;50.768;13.150;2022-08-18T16:04:00;16.13;;;11.47;;
23476;SDS011;11911;50.768;13.150;2022-08-18T16:06:27;26.90;;;10.20;;
23476;SDS011;11911;50.768;13.150;2022-08-18T16:08:53;10.83;;;9.30;;
23476;SDS011;11911;50.768;13.150;2022-08-18T16:11:20;12.67;;;10.63;;
23476;SDS011;11911;50.768;13.150;2022-08-18T16:13:47;12.70;;;11.37;;
23476;SDS011;11911;50.768;13.150;2022-08-18T16:16:14;11.80;;;9.80;;
23476;SDS011;11911;50.768;13.150;2022-08-18T16:18:43;16.90;;;10.30;;
23476;SDS011;11911;50.768;13.150;2022-08-18T16:21:10;19.40;;;9.27;;
23476;SDS011;11911;50.768;13.150;2022-08-18T16:23:38;21.63;;;10.53;;
23476;SDS011;11911;50.768;13.150;2022-08-18T16:26:05;19.50;;;9.93;;
23476;SDS011;11911;50.768;13.150;2022-08-18T16:28:32;10.83;;;9.63;;
23476;SDS011;11911;50.768;13.150;2022-08-18T16:30:58;11.60;;;8.60;;
23476;SDS011;11911;50.768;13.150;2022-08-18T16:33:24;11.67;;;9.20;;
23476;SDS011;11911;50.768;13.150;2022-08-18T16:35:50;26.53;;;9.70;;
23476;SDS011;11911;50.768;13.150;2022-08-18T16:38:16;16.13;;;10.07;;
23476;SDS011;11911;50.768;13.150;2022-08-18T16:40:42;15.10;;;9.70;;
23476;SDS011;11911;50.768;13.150;2022-08-18T16:43:08;14.00;;;9.90;;
23476;SDS011;11911;50.768;13.150;2022-08-18T16:45:37;13.20;;;9.20;;
23476;SDS011;11911;50.768;13.150;2022-08-18T16:48:06;24.67;;;9.40;;
23476;SDS011;11911;50.768;13.150;2022-08-18T16:50:33;16.60;;;8.70;;
23476;SDS011;11911;50.768;13.150;2022-08-18T16:52:59;21.07;;;8.50;;
23476;SDS011;11911;50.768;13.150;2022-08-18T16:55:25;13.70;;;7.90;;
23476;SDS011;11911;50.768;13.150;2022-08-18T16:57:50;14.23;;;8.77;;
23476;SDS011;11911;50.768;13.150;2022-08-18T17:00:34;13.57;;;7.90;;
23476;SDS011;11911;50.768;13.150;2022-08-18T17:03:18;22.07;;;9.77;;
23476;SDS011;11911;50.768;13.150;2022-08-18T17:06:06;23.23;;;7.90;;
23476;SDS011;11911;50.768;13.150;2022-08-18T17:08:35;15.30;;;8.00;;
23476;SDS011;11911;50.768;13.150;2022-08-18T17:11:05;12.60;;;8.20;;
23476;SDS011;11911;50.768;13.150;2022-08-18T17:13:33;12.27;;;8.67;;
23476;SDS011;11911;50.768;13.150;2022-08-18T17:15:59;14.93;;;9.00;;
23476;SDS011;11911;50.768;13.150;2022-08-18T17:18:25;8.87;;;8.07;;
23476;SDS011;11911;50.768;13.150;2022-08-18T17:20:51;12.37;;;8.27;;
23476;SDS011;11911;50.768;13.150;2022-08-18T17:23:17;16.20;;;8.00;;
23476;SDS011;11911;50.768;13.150;2022-08-18T17:25:43;13.23;;;8.33;;
23476;SDS011;11911;50.768;13.150;2022-08-18T17:28:10;18.57;;;8.30;;
23476;SDS011;11911;50.768;13.150;2022-08-18T17:30:41;17.60;;;8.30;;
23476;SDS011;11911;50.768;13.150;2022-08-18T17:33:12;10.90;;;9.57;;
23476;SDS011;11911;50.768;13.150;2022-08-18T17:35:43;13.97;;;8.37;;
23476;SDS011;11911;50.768;13.150;2022-08-18T17:38:12;18.67;;;8.47;;
23476;SDS011;11911;50.768;13.150;2022-08-18T17:40:54;21.83;;;8.97;;
23476;SDS011;11911;50.768;13.150;2022-08-18T17:43:22;13.57;;;8.67;;
23476;SDS011;11911;50.768;13.150;2022-08-18T17:45:53;14.77;;;9.10;;
23476;SDS011;11911;50.768;13.150;2022-08-18T17:48:25;8.33;;;7.60;;
23476;SDS011;11911;50.768;13.150;2022-08-18T17:50:56;13.03;;;8.67;;
23476;SDS011;11911;50.768;13.150;2022-08-18T17:53:44;14.57;;;9.37;;
23476;SDS011;11911;50.768;13.150;2022-08-18T17:56:16;9.90;;;8.30;;
23476;SDS011;11911;50.768;13.150;2022-08-18T17:58:52;11.83;;;8.70;;
23476;SDS011;11911;50.768;13.150;2022-08-18T18:01:23;18.50;;;8.50;;
23476;SDS011;11911;50.768;13.150;2022-08-18T18:03:50;15.23;;;9.80;;
23476;SDS011;11911;50.768;13.150;2022-08-18T18:06:37;11.17;;;8.80;;
23476;SDS011;11911;50.768;13.150;2022-08-18T18:09:06;10.30;;;8.40;;
23476;SDS011;11911;50.768;13.150;2022-08-18T18:11:34;15.30;;;9.23;;
23476;SDS011;11911;50.768;13.150;2022-08-18T18:17:13;12.70;;;9.87;;
23476;SDS011;11911;50.768;13.150;2022-08-18T18:19:42;21.17;;;9.23;;
23476;SDS011;11911;50.768;13.150;2022-08-18T18:22:20;15.23;;;9.43;;
23476;SDS011;11911;50.768;13.150;2022-08-18T18:24:52;9.53;;;8.27;;
23476;SDS011;11911;50.768;13.150;2022-08-18T18:27:26;12.00;;;9.33;;
23476;SDS011;11911;50.768;13.150;2022-08-18T18:30:26;12.30;;;9.37;;
23476;SDS011;11911;50.768;13.150;2022-08-18T18:32:57;9.80;;;8.53;;
23476;SDS011;11911;50.768;13.150;2022-08-18T18:35:32;14.83;;;8.40;;
23476;SDS011;11911;50.768;13.150;2022-08-18T18:38:24;19.83;;;9.47;;
23476;SDS011;11911;50.768;13.150;2022-08-18T18:40:58;29.80;;;10.93;;
23476;SDS011;11911;50.768;13.150;2022-08-18T18:43:27;13.30;;;11.20;;
23476;SDS011;11911;50.768;13.150;2022-08-18T18:46:11;18.57;;;11.93;;
23476;SDS011;11911;50.768;13.150;2022-08-18T18:51:57;20.50;;;10.60;;
23476;SDS011;11911;50.768;13.150;2022-08-18T18:54:54;15.77;;;12.47;;
23476;SDS011;11911;50.768;13.150;2022-08-18T18:57:32;19.53;;;12.83;;
23476;SDS011;11911;50.768;13.150;2022-08-18T19:00:22;17.17;;;12.40;;
23476;SDS011;11911;50.768;13.150;2022-08-18T19:05:32;18.03;;;12.70;;
23476;SDS011;11911;50.768;13.150;2022-08-18T19:08:12;19.43;;;13.03;;
23476;SDS011;11911;50.768;13.150;2022-08-18T19:10:42;18.70;;;14.10;;
23476;SDS011;11911;50.768;13.150;2022-08-18T19:13:19;16.80;;;13.37;;
23476;SDS011;11911;50.768;13.150;2022-08-18T19:15:48;16.97;;;14.00;;
23476;SDS011;11911;50.768;13.150;2022-08-18T19:18:18;17.50;;;13.90;;
23476;SDS011;11911;50.768;13.150;2022-08-18T19:20:57;17.50;;;15.20;;
23476;SDS011;11911;50.768;13.150;2022-08-18T19:23:30;16.33;;;14.53;;
23476;SDS011;11911;50.768;13.150;2022-08-18T19:26:03;16.47;;;14.83;;
23476;SDS011;11911;50.768;13.150;2022-08-18T19:28:33;16.37;;;14.97;;
23476;SDS011;11911;50.768;13.150;2022-08-18T19:31:07;22.97;;;15.67;;
23476;SDS011;11911;50.768;13.150;2022-08-18T19:33:41;16.87;;;15.17;;
23476;SDS011;11911;50.768;13.150;2022-08-18T19:36:14;16.83;;;15.03;;
23476;SDS011;11911;50.768;13.150;2022-08-18T19:39:12;23.50;;;16.63;;
23476;SDS011;11911;50.768;13.150;2022-08-18T19:44:34;18.50;;;16.60;;
23476;SDS011;11911;50.768;13.150;2022-08-18T19:47:17;20.37;;;18.20;;
23476;SDS011;11911;50.768;13.150;2022-08-18T19:50:12;24.40;;;18.80;;
23476;SDS011;11911;50.768;13.150;2022-08-18T19:52:58;24.70;;;18.57;;
23476;SDS011;11911;50.768;13.150;2022-08-18T20:01:01;19.57;;;17.57;;
23476;SDS011;11911;50.768;13.150;2022-08-18T20:03:40;19.37;;;17.23;;
23476;SDS011;11911;50.768;13.150;2022-08-18T20:15:17;19.60;;;17.00;;
23476;SDS011;11911;50.768;13.150;2022-08-18T20:18:17;18.07;;;16.10;;
23476;SDS011;11911;50.768;13.150;2022-08-18T20:20:44;22.90;;;16.90;;
23476;SDS011;11911;50.768;13.150;2022-08-18T20:26:39;28.20;;;19.17;;
23476;SDS011;11911;50.768;13.150;2022-08-18T20:32:04;22.97;;;20.67;;
23476;SDS011;11911;50.768;13.150;2022-08-18T20:34:39;23.17;;;20.80;;
23476;SDS011;11911;50.768;13.150;2022-08-18T20:37:11;23.23;;;20.83;;
23476;SDS011;11911;50.768;13.150;2022-08-18T20:39:48;23.93;;;21.37;;
23476;SDS011;11911;50.768;13.150;2022-08-18T20:50:20;23.43;;;21.13;;
23476;SDS011;11911;50.768;13.150;2022-08-18T20:53:29;23.57;;;20.87;;
23476;SDS011;11911;50.768;13.150;2022-08-18T20:56:29;23.17;;;20.77;;
23476;SDS011;11911;50.768;13.150;2022-08-18T20:59:13;22.73;;;20.10;;
23476;SDS011;11911;50.768;13.150;2022-08-18T21:01:51;22.90;;;20.67;;
23476;SDS011;11911;50.768;13.150;2022-08-18T21:04:34;23.43;;;21.00;;
23476;SDS011;11911;50.768;13.150;2022-08-18T21:07:16;24.90;;;22.30;;
23476;SDS011;11911;50.768;13.150;2022-08-18T21:09:47;23.80;;;21.30;;
23476;SDS011;11911;50.768;13.150;2022-08-18T21:12:19;24.97;;;22.30;;
23476;SDS011;11911;50.768;13.150;2022-08-18T21:14:53;25.63;;;23.03;;
23476;SDS011;11911;50.768;13.150;2022-08-18T21:17:22;25.30;;;22.80;;
23476;SDS011;11911;50.768;13.150;2022-08-18T21:19:50;36.20;;;24.00;;
23476;SDS011;11911;50.768;13.150;2022-08-18T21:22:23;31.63;;;24.27;;
23476;SDS011;11911;50.768;13.150;2022-08-18T21:24:48;26.70;;;23.97;;
23476;SDS011;11911;50.768;13.150;2022-08-18T21:29:48;26.20;;;23.07;;
23476;SDS011;11911;50.768;13.150;2022-08-18T21:32:21;27.00;;;24.40;;
23476;SDS011;11911;50.768;13.150;2022-08-18T21:34:55;26.77;;;23.77;;
23476;SDS011;11911;50.768;13.150;2022-08-18T21:37:22;25.77;;;22.97;;
23476;SDS011;11911;50.768;13.150;2022-08-18T21:39:49;26.03;;;23.43;;
23476;SDS011;11911;50.768;13.150;2022-08-18T21:42:22;25.10;;;22.70;;
23476;SDS011;11911;50.768;13.150;2022-08-18T21:44:54;27.13;;;23.97;;
23476;SDS011;11911;50.768;13.150;2022-08-18T21:47:24;25.53;;;23.03;;
23476;SDS011;11911;50.768;13.150;2022-08-18T21:50:27;25.40;;;22.47;;
23476;SDS011;11911;50.768;13.150;2022-08-18T21:52:51;25.90;;;23.37;;
23476;SDS011;11911;50.768;13.150;2022-08-18T21:55:27;26.00;;;21.37;;